Takaoka, Japan
Current Conditions -  °F | °C
As of 6:10 AM on Friday 24 Oct 2014 (Local Time) from RJNT Reporting Station
Few Clouds Few Clouds  
Wind Chill: 50°   Ceiling: Unl
Heat Index: 50°   Visibility: 6mi
Dew Point: 48°   Wind: 0mph
Humidity: 94%   Direction: NA
Pressure: 30.12"   Gusts: NA
Location:  36.75°N, 137.02°E
Report Text: RJNT 232110Z 00000KT 9999 FEW040 10/09 Q1020 RMK 1SC040 A3015
Loading
Personal Weather Stations






























Interactive Weather Map
Tropical Storm Tracking
New forecast layout! Learn more

10-Day Weather Forecast

Advertisements
Track Severe Weather on mobile